Time;durP1;ratioP1;P1;durP2;ratioP2;P2;SDS_P1;SDS_P2;PMS_P1;PMS_P2;Temp;Humidity;BMP_temperature;BMP_pressure;BME280_temperature;BME280_humidity;BME280_pressure;Samples;Min_cycle;Max_cycle;Signal;HPM_P1;HPM_P2
2023/08/30 00:01:08;;;;;;;19.20;17.30;;;;;;;20.54;93.84;99316.52;104072;275;38686;-73
2023/08/30 00:03:53;;;;;;;20.00;17.60;;;;;;;20.57;94.22;99323.67;104151;275;38423;-74
2023/08/30 00:06:31;;;;;;;20.10;18.00;;;;;;;20.56;94.06;99330.84;104051;275;38719;-77
2023/08/30 00:09:06;;;;;;;19.20;17.30;;;;;;;20.55;93.84;99333.78;104113;275;38244;-73
2023/08/30 00:11:40;;;;;;;20.40;18.30;;;;;;;20.52;93.67;99331.73;104126;275;38704;-73
2023/08/30 00:14:14;;;;;;;21.20;19.00;;;;;;;20.49;93.85;99321.77;104155;275;38264;-74
2023/08/30 00:16:50;;;;;;;21.10;19.00;;;;;;;20.45;93.70;99309.08;104102;272;38742;-76
2023/08/30 00:19:24;;;;;;;23.50;19.80;;;;;;;20.41;93.89;99310.06;104122;275;39453;-73
2023/08/30 00:22:00;;;;;;;20.70;18.60;;;;;;;20.40;94.17;99315.33;104080;275;39718;-71
2023/08/30 00:24:35;;;;;;;21.80;19.50;;;;;;;20.39;94.29;99326.27;104177;275;38648;-72
2023/08/30 00:27:13;;;;;;;20.20;18.20;;;;;;;20.37;94.38;99334.02;104151;275;39412;-73
2023/08/30 00:29:47;;;;;;;20.70;18.60;;;;;;;20.36;94.43;99337.89;104154;275;38522;-74
2023/08/30 00:32:21;;;;;;;21.60;19.40;;;;;;;20.35;94.52;99340.04;104130;275;39250;-75
2023/08/30 00:34:56;;;;;;;20.10;18.10;;;;;;;20.32;94.45;99339.27;104139;275;38290;-75
2023/08/30 00:37:30;;;;;;;22.00;19.50;;;;;;;20.31;94.49;99338.46;104104;275;38228;-74
2023/08/30 00:40:07;;;;;;;21.90;19.50;;;;;;;20.31;94.35;99344.86;104114;275;39774;-74
2023/08/30 00:42:42;;;;;;;23.90;19.80;;;;;;;20.30;94.48;99345.33;103935;277;38660;-74
2023/08/30 00:45:19;;;;;;;23.10;19.80;;;;;;;20.29;94.29;99353.94;104124;275;38320;-74
2023/08/30 00:47:58;;;;;;;22.50;20.10;;;;;;;20.26;94.36;99362.02;104125;275;39431;-75
2023/08/30 00:50:32;;;;;;;22.00;19.80;;;;;;;20.22;94.07;99359.94;104089;275;38506;-75
2023/08/30 00:53:07;;;;;;;20.30;18.20;;;;;;;20.20;94.32;99360.82;104148;275;38431;-74
2023/08/30 00:55:43;;;;;;;21.30;19.00;;;;;;;20.19;94.22;99362.69;104134;275;39461;-74
2023/08/30 00:58:17;;;;;;;21.60;18.70;;;;;;;20.15;93.98;99363.23;104190;275;38271;-73
2023/08/30 01:00:54;;;;;;;20.00;18.00;;;;;;;20.12;93.95;99366.69;103968;277;38414;-74
2023/08/30 01:03:30;;;;;;;18.90;17.00;;;;;;;20.10;94.14;99364.89;104139;275;38679;-74
2023/08/30 01:06:04;;;;;;;19.70;17.70;;;;;;;20.07;93.94;99374.54;103909;277;38702;-74
2023/08/30 01:08:39;;;;;;;18.70;16.80;;;;;;;20.05;93.98;99375.25;104041;275;39530;-73
2023/08/30 01:11:19;;;;;;;19.60;17.40;;;;;;;20.06;94.11;99383.55;104140;275;39377;-73
2023/08/30 01:13:57;;;;;;;18.70;16.80;;;;;;;20.05;93.85;99380.64;104034;275;174581;-73
2023/08/30 01:16:31;;;;;;;18.10;16.20;;;;;;;20.02;93.89;99388.13;104104;275;38373;-73
2023/08/30 01:19:13;;;;;;;17.20;15.50;;;;;;;20.01;93.78;99397.45;104151;275;38669;-74
2023/08/30 01:22:00;;;;;;;17.20;15.50;;;;;;;19.98;93.97;99398.59;104095;275;38304;-74
2023/08/30 01:24:38;;;;;;;18.20;16.40;;;;;;;19.98;93.90;99400.70;104180;275;38622;-73
2023/08/30 01:27:17;;;;;;;16.20;14.60;;;;;;;19.96;93.57;99396.87;103479;275;893045;-74
2023/08/30 01:29:52;;;;;;;16.20;14.70;;;;;;;19.91;93.35;99397.88;103980;275;189275;-74
2023/08/30 01:32:28;;;;;;;16.30;14.60;;;;;;;19.87;93.32;99395.77;104053;275;38283;-74
2023/08/30 01:35:04;;;;;;;16.60;14.70;;;;;;;19.84;93.32;99390.48;103957;275;38427;-74
2023/08/30 01:37:47;;;;;;;15.70;14.10;;;;;;;19.80;93.22;99389.13;104109;275;38232;-74
2023/08/30 01:40:24;;;;;;;17.90;16.20;;;;;;;19.78;93.41;99381.41;104054;275;38639;-73
2023/08/30 01:43:05;;;;;;;15.50;13.90;;;;;;;19.76;93.32;99385.25;104053;275;38477;-71
2023/08/30 01:45:41;;;;;;;17.30;15.60;;;;;;;19.74;92.98;99383.84;104095;275;38318;-73
2023/08/30 01:48:18;;;;;;;17.30;15.70;;;;;;;19.71;92.95;99391.52;104074;275;39417;-73
2023/08/30 01:50:54;;;;;;;18.30;16.20;;;;;;;19.69;92.87;99383.80;104078;275;38253;-73
2023/08/30 01:53:34;;;;;;;17.70;15.90;;;;;;;19.65;93.06;99378.98;104123;275;38503;-73
2023/08/30 01:56:09;;;;;;;18.10;16.30;;;;;;;19.64;93.19;99378.20;104099;275;38239;-74
2023/08/30 01:58:44;;;;;;;18.00;16.10;;;;;;;19.64;93.29;99374.21;103958;275;38398;-73
2023/08/30 02:01:18;;;;;;;18.30;16.40;;;;;;;19.60;92.85;99382.13;104057;275;39377;-72
2023/08/30 02:03:55;;;;;;;17.60;15.80;;;;;;;19.57;93.10;99387.48;104117;275;38593;-74
2023/08/30 02:06:33;;;;;;;20.00;16.80;;;;;;;19.58;93.22;99385.29;104044;275;38243;-73
2023/08/30 02:09:20;;;;;;;22.70;15.70;;;;;;;19.57;92.97;99384.67;103994;277;39374;-73
2023/08/30 02:11:54;;;;;;;20.00;17.10;;;;;;;19.52;93.10;99378.02;103957;276;38431;-73
2023/08/30 02:14:29;;;;;;;19.10;16.50;;;;;;;19.49;93.19;99375.97;103671;276;39649;-73
2023/08/30 02:17:05;;;;;;;18.50;16.60;;;;;;;19.46;93.03;99372.44;104011;276;38251;-71
2023/08/30 02:19:40;;;;;;;19.10;16.80;;;;;;;19.42;93.24;99358.29;103999;276;38284;-73
2023/08/30 02:22:14;;;;;;;18.50;16.70;;;;;;;19.37;93.10;99358.70;104011;276;39419;-74
2023/08/30 02:24:49;;;;;;;18.60;16.70;;;;;;;19.32;93.29;99358.14;104025;276;38581;-74
2023/08/30 02:27:22;;;;;;;18.90;16.80;;;;;;;19.29;93.38;99351.83;103878;276;38246;-73
2023/08/30 02:29:56;;;;;;;20.30;17.20;;;;;;;19.27;93.49;99344.10;103908;276;38451;-73
2023/08/30 02:32:30;;;;;;;18.80;16.90;;;;;;;19.24;93.46;99334.80;104035;276;38737;-73
2023/08/30 02:35:07;;;;;;;18.70;16.70;;;;;;;19.18;93.50;99326.45;104082;276;39601;-73
2023/08/30 02:37:43;;;;;;;19.00;17.10;;;;;;;19.15;93.66;99316.66;103853;276;38227;-73
2023/08/30 02:40:17;;;;;;;19.30;17.10;;;;;;;19.11;93.66;99307.88;104055;276;38237;-72
2023/08/30 02:42:51;;;;;;;18.10;16.20;;;;;;;19.05;93.58;99302.94;104023;276;38927;-74
2023/08/30 02:45:25;;;;;;;20.40;17.80;;;;;;;18.99;93.47;99295.16;104060;276;38249;-72
2023/08/30 02:48:01;;;;;;;20.20;18.00;;;;;;;18.92;93.39;99289.05;104022;276;38258;-73
2023/08/30 02:50:35;;;;;;;19.90;17.80;;;;;;;18.86;93.60;99283.45;103847;277;38290;-73
2023/08/30 02:53:09;;;;;;;19.90;17.90;;;;;;;18.82;93.72;99278.52;104063;276;38273;-73
2023/08/30 02:55:43;;;;;;;20.00;17.80;;;;;;;18.78;93.80;99267.16;104021;276;38409;-73
2023/08/30 02:58:17;;;;;;;19.10;17.20;;;;;;;18.74;94.01;99262.19;104038;276;38677;-73
2023/08/30 03:00:51;;;;;;;21.00;18.20;;;;;;;18.70;93.85;99263.15;104031;276;38353;-72
2023/08/30 03:03:25;;;;;;;19.50;17.40;;;;;;;18.62;93.77;99267.15;104045;276;38271;-73
2023/08/30 03:06:00;;;;;;;19.30;17.40;;;;;;;18.52;93.73;99273.46;104001;276;38265;-74
2023/08/30 03:08:34;;;;;;;19.40;17.40;;;;;;;18.46;94.13;99281.14;104019;276;38490;-75
2023/08/30 03:11:14;;;;;;;20.40;18.20;;;;;;;18.46;94.57;99280.96;104010;276;38266;-74
2023/08/30 03:13:49;;;;;;;20.30;18.20;;;;;;;18.44;94.70;99281.11;104045;276;38729;-74
2023/08/30 03:16:23;;;;;;;19.80;17.30;;;;;;;18.42;94.64;99288.20;104028;276;39465;-74
2023/08/30 03:18:57;;;;;;;19.40;17.20;;;;;;;18.39;94.58;99290.39;104049;276;38486;-74
2023/08/30 03:21:31;;;;;;;21.80;17.70;;;;;;;18.31;94.22;99294.27;104033;276;38680;-73
2023/08/30 03:24:07;;;;;;;19.20;17.20;;;;;;;18.25;94.56;99293.55;104019;276;38980;-73
2023/08/30 03:26:41;;;;;;;20.80;17.90;;;;;;;18.23;94.80;99296.20;104019;265;38526;-73
2023/08/30 03:29:15;;;;;;;20.10;18.00;;;;;;;18.22;94.91;99296.83;104111;276;39419;-73
2023/08/30 03:31:50;;;;;;;22.10;19.90;;;;;;;18.21;95.25;99294.07;104005;276;40093;-74
2023/08/30 03:34:24;;;;;;;21.90;19.30;;;;;;;18.21;95.63;99286.32;104034;276;38267;-73
2023/08/30 03:36:58;;;;;;;22.10;19.40;;;;;;;18.18;95.76;99290.97;104000;277;38646;-72
2023/08/30 03:39:32;;;;;;;21.80;19.50;;;;;;;18.20;96.30;99291.92;104012;277;38234;-73
2023/08/30 03:42:06;;;;;;;21.30;18.90;;;;;;;18.20;96.17;99290.27;104023;265;38589;-72
2023/08/30 03:44:42;;;;;;;20.60;18.50;;;;;;;18.17;95.97;99298.35;104033;265;38517;-73
2023/08/30 03:47:16;;;;;;;21.80;19.40;;;;;;;18.14;96.12;99301.23;104026;277;38960;-73
2023/08/30 03:49:49;;;;;;;24.20;19.50;;;;;;;18.15;96.55;99300.46;103998;276;38412;-74
2023/08/30 03:52:23;;;;;;;21.60;19.30;;;;;;;18.15;96.56;99301.52;103982;277;39441;-74
2023/08/30 03:54:57;;;;;;;25.30;19.60;;;;;;;18.12;96.42;99292.55;104037;277;38979;-72
2023/08/30 03:57:31;;;;;;;21.10;18.80;;;;;;;18.11;96.61;99293.38;104025;277;38015;-72
2023/08/30 04:00:07;;;;;;;21.00;18.80;;;;;;;18.07;96.52;99286.27;104023;277;38249;-72
2023/08/30 04:02:41;;;;;;;20.20;18.10;;;;;;;18.04;96.43;99288.64;104016;277;38422;-73
2023/08/30 04:05:15;;;;;;;20.00;17.50;;;;;;;18.01;96.21;99292.23;103998;277;39614;-71
2023/08/30 04:07:50;;;;;;;20.00;17.40;;;;;;;18.00;96.50;99293.61;103816;276;38608;-72
2023/08/30 04:10:23;;;;;;;21.30;18.10;;;;;;;18.01;96.75;99295.10;104037;277;38861;-73
2023/08/30 04:12:59;;;;;;;23.30;18.50;;;;;;;18.01;96.62;99296.98;104015;276;38704;-72
2023/08/30 04:15:35;;;;;;;21.20;17.70;;;;;;;18.00;96.57;99296.61;104000;277;37977;-75
2023/08/30 04:18:09;;;;;;;23.20;18.90;;;;;;;18.01;96.82;99296.48;103856;277;38261;-73
2023/08/30 04:20:47;;;;;;;20.60;18.40;;;;;;;18.01;96.90;99302.44;103990;277;38816;-74
2023/08/30 04:23:22;;;;;;;21.50;18.50;;;;;;;18.04;97.04;99306.52;103855;278;39384;-72
2023/08/30 04:25:56;;;;;;;19.70;17.70;;;;;;;18.08;97.49;99302.63;103979;277;38571;-73
2023/08/30 04:28:30;;;;;;;21.00;18.10;;;;;;;18.12;97.62;99299.81;103999;277;39591;-73
2023/08/30 04:31:04;;;;;;;21.30;18.10;;;;;;;18.16;97.82;99290.81;104028;277;38287;-72
2023/08/30 04:33:38;;;;;;;22.70;18.80;;;;;;;18.20;97.73;99293.59;104090;276;38256;-72
2023/08/30 04:36:12;;;;;;;20.50;18.30;;;;;;;18.21;97.81;99297.73;104050;276;38674;-73
2023/08/30 04:38:46;;;;;;;23.30;18.40;;;;;;;18.25;97.94;99297.04;104114;276;38290;-73
2023/08/30 04:41:20;;;;;;;24.70;19.00;;;;;;;18.26;97.82;99294.20;104057;276;40349;-74
2023/08/30 04:43:54;;;;;;;21.90;18.70;;;;;;;18.26;97.81;99299.27;104096;276;38415;-74
2023/08/30 04:46:28;;;;;;;21.70;19.40;;;;;;;18.27;98.07;99301.52;104048;276;38247;-74
2023/08/30 04:49:02;;;;;;;22.60;19.50;;;;;;;18.28;98.16;99300.88;103842;276;39988;-73
2023/08/30 04:51:37;;;;;;;24.00;19.90;;;;;;;18.31;97.99;99297.97;104083;276;39418;-73
2023/08/30 04:54:11;;;;;;;22.00;18.90;;;;;;;18.32;98.00;99304.39;104113;276;39153;-73
2023/08/30 04:56:45;;;;;;;22.10;19.30;;;;;;;18.32;97.92;99308.50;104011;276;38346;-73
2023/08/30 04:59:19;;;;;;;22.90;19.90;;;;;;;18.35;98.17;99316.73;104102;276;38437;-73
2023/08/30 05:01:54;;;;;;;20.90;18.70;;;;;;;18.35;97.78;99324.81;104057;276;38393;-73
2023/08/30 05:04:28;;;;;;;21.30;18.40;;;;;;;18.35;97.82;99336.50;104113;276;38896;-73
2023/08/30 05:07:02;;;;;;;21.90;19.20;;;;;;;18.35;97.82;99334.94;104079;276;39434;-73
2023/08/30 05:09:36;;;;;;;20.80;18.50;;;;;;;18.35;98.02;99334.88;104065;276;40390;-73
2023/08/30 05:12:11;;;;;;;19.90;17.90;;;;;;;18.37;98.08;99342.11;103866;276;39246;-72
2023/08/30 05:14:45;;;;;;;21.50;18.60;;;;;;;18.39;98.18;99349.55;104112;276;38766;-75
2023/08/30 05:17:19;;;;;;;20.50;18.30;;;;;;;18.38;97.83;99351.90;104028;276;39903;-75
2023/08/30 05:19:53;;;;;;;21.60;18.30;;;;;;;18.37;97.95;99353.06;104077;276;38272;-74
2023/08/30 05:22:27;;;;;;;21.40;18.10;;;;;;;18.39;98.24;99355.20;104050;276;38875;-74
2023/08/30 05:25:01;;;;;;;20.70;18.30;;;;;;;18.39;98.02;99357.13;104079;276;39313;-73
2023/08/30 05:27:36;;;;;;;20.90;17.50;;;;;;;18.39;98.01;99360.11;104097;276;38372;-73
2023/08/30 05:30:13;;;;;;;21.00;17.90;;;;;;;18.43;98.15;99370.58;103899;276;39587;-74
2023/08/30 05:32:47;;;;;;;23.20;18.60;;;;;;;18.45;98.27;99367.90;104073;276;38754;-74
2023/08/30 05:35:21;;;;;;;21.00;18.80;;;;;;;18.49;98.26;99372.70;104072;276;38215;-74
2023/08/30 05:38:02;;;;;;;21.50;18.60;;;;;;;18.49;97.98;99373.39;104074;276;38278;-73
2023/08/30 05:40:42;;;;;;;21.30;18.70;;;;;;;18.48;97.84;99380.50;103778;276;38294;-74
2023/08/30 05:43:16;;;;;;;18.90;16.50;;;;;;;18.50;97.90;99382.51;104119;276;38768;-74
2023/08/30 05:45:53;;;;;;;19.00;17.00;;;;;;;18.49;97.79;99377.83;104019;276;39425;-73
2023/08/30 05:48:27;;;;;;;19.60;16.50;;;;;;;18.53;97.97;99379.41;104098;276;38246;-73
2023/08/30 05:51:01;;;;;;;18.10;15.50;;;;;;;18.58;98.25;99384.28;104002;276;38609;-74
2023/08/30 05:53:34;;;;;;;18.00;16.10;;;;;;;18.57;97.69;99389.65;104072;276;38403;-73
2023/08/30 05:56:09;;;;;;;16.80;15.00;;;;;;;18.59;97.58;99395.16;104009;276;38514;-72
2023/08/30 05:58:42;;;;;;;15.70;14.00;;;;;;;18.61;97.43;99392.89;103938;276;38533;-73
2023/08/30 06:01:18;;;;;;;15.70;14.10;;;;;;;18.64;97.63;99395.30;104000;276;38417;-75
2023/08/30 06:03:52;;;;;;;17.50;15.40;;;;;;;18.68;97.65;99397.58;104051;276;38227;-74
2023/08/30 06:06:27;;;;;;;19.50;15.90;;;;;;;18.69;97.07;99392.71;103953;276;40696;-74
2023/08/30 06:09:03;;;;;;;20.70;14.90;;;;;;;18.68;96.94;99394.00;104025;276;38281;-73
2023/08/30 06:11:38;;;;;;;18.50;15.60;;;;;;;18.68;96.87;99391.52;104031;276;38230;-73
2023/08/30 06:14:12;;;;;;;17.20;15.00;;;;;;;18.66;96.35;99393.97;104060;276;38415;-71
2023/08/30 06:16:46;;;;;;;18.10;15.60;;;;;;;18.66;96.48;99393.84;104064;276;38243;-73
2023/08/30 06:19:20;;;;;;;17.90;15.90;;;;;;;18.66;96.60;99395.55;104079;276;38273;-74
2023/08/30 06:21:54;;;;;;;17.90;15.80;;;;;;;18.69;96.61;99394.66;104047;276;38488;-76
2023/08/30 06:24:28;;;;;;;20.50;15.90;;;;;;;18.70;96.70;99391.38;104049;276;38401;-74
2023/08/30 06:27:02;;;;;;;19.00;15.60;;;;;;;18.74;96.73;99388.02;103381;276;894299;-76
2023/08/30 06:29:36;;;;;;;17.60;15.70;;;;;;;18.76;96.46;99389.48;104063;276;38243;-73
2023/08/30 06:32:11;;;;;;;18.00;16.10;;;;;;;18.76;96.34;99385.57;104015;276;39424;-74
2023/08/30 06:34:45;;;;;;;17.60;15.70;;;;;;;18.76;96.52;99383.29;104051;276;39390;-74
2023/08/30 06:37:20;;;;;;;20.30;16.10;;;;;;;18.77;96.27;99387.42;103866;276;39715;-73
2023/08/30 06:39:54;;;;;;;19.60;16.80;;;;;;;18.78;96.34;99388.38;103906;276;39948;-74
2023/08/30 06:42:28;;;;;;;20.70;17.20;;;;;;;18.80;96.36;99386.08;104052;276;38430;-73
2023/08/30 06:45:02;;;;;;;20.10;16.90;;;;;;;18.87;96.71;99387.23;104034;276;38319;-72
2023/08/30 06:47:37;;;;;;;22.50;18.10;;;;;;;18.88;96.10;99387.14;104054;276;38298;-72
2023/08/30 06:50:12;;;;;;;21.80;18.00;;;;;;;18.86;95.86;99389.48;103988;276;174589;-73
2023/08/30 06:52:46;;;;;;;20.40;17.50;;;;;;;18.85;95.84;99388.50;104052;276;39871;-71
2023/08/30 06:55:20;;;;;;;28.40;20.30;;;;;;;18.83;95.74;99389.20;104061;276;38667;-74
2023/08/30 06:58:02;;;;;;;32.20;20.20;;;;;;;18.82;95.68;99385.73;104038;276;39444;-73
2023/08/30 07:00:39;;;;;;;29.10;20.80;;;;;;;18.82;95.53;99388.05;103907;277;38959;-73
2023/08/30 07:03:13;;;;;;;29.90;21.70;;;;;;;18.79;95.43;99392.38;104150;276;39398;-73
2023/08/30 07:05:48;;;;;;;25.70;20.20;;;;;;;18.76;95.22;99398.27;102699;276;893556;-72
2023/08/30 07:08:22;;;;;;;25.30;18.90;;;;;;;18.74;95.09;99403.20;103990;276;38263;-73
2023/08/30 07:10:57;;;;;;;21.40;18.10;;;;;;;18.76;95.38;99398.48;103891;276;174598;-71
2023/08/30 07:13:32;;;;;;;21.30;18.10;;;;;;;18.75;95.38;99395.17;104026;276;38677;-73
2023/08/30 07:16:07;;;;;;;23.50;17.60;;;;;;;18.76;95.48;99395.40;104058;276;39672;-74
2023/08/30 07:18:43;;;;;;;21.20;17.40;;;;;;;18.79;95.70;99397.16;104047;264;38344;-74
2023/08/30 07:21:17;;;;;;;22.20;18.20;;;;;;;18.78;95.16;99403.20;103991;276;38263;-74
2023/08/30 07:23:51;;;;;;;30.40;18.20;;;;;;;18.74;95.02;99406.23;104019;276;38697;-73
2023/08/30 07:26:25;;;;;;;32.50;19.50;;;;;;;18.71;95.14;99405.55;104015;276;38277;-75
2023/08/30 07:28:59;;;;;;;32.70;20.50;;;;;;;18.75;95.60;99403.84;104065;276;39950;-75
2023/08/30 07:31:33;;;;;;;27.00;19.00;;;;;;;18.77;95.63;99402.95;104014;276;39510;-74
2023/08/30 07:34:07;;;;;;;27.50;18.70;;;;;;;18.81;95.74;99398.31;104076;276;39710;-75
2023/08/30 07:36:41;;;;;;;28.30;18.70;;;;;;;18.83;95.75;99398.39;103935;276;39149;-74
2023/08/30 07:39:16;;;;;;;33.10;20.00;;;;;;;18.84;95.44;99398.43;103864;276;40481;-74
2023/08/30 07:41:50;;;;;;;26.70;18.50;;;;;;;18.86;95.72;99395.07;104016;276;38373;-74
2023/08/30 07:44:25;;;;;;;24.40;18.40;;;;;;;18.90;95.81;99395.46;103897;277;39477;-74
2023/08/30 07:46:59;;;;;;;22.50;18.10;;;;;;;18.92;95.90;99394.19;104049;276;38268;-74
2023/08/30 07:49:33;;;;;;;25.60;19.20;;;;;;;18.91;95.36;99394.64;104090;276;39451;-74
2023/08/30 07:52:10;;;;;;;32.50;19.40;;;;;;;18.87;95.24;99398.54;104021;276;38269;-74
2023/08/30 07:54:47;;;;;;;28.80;19.80;;;;;;;18.89;95.48;99398.14;104029;276;39549;-73
2023/08/30 07:57:21;;;;;;;25.90;20.00;;;;;;;18.92;95.72;99398.82;104051;276;38834;-73
2023/08/30 07:59:55;;;;;;;25.30;19.40;;;;;;;18.93;95.84;99403.15;104062;276;38432;-73
2023/08/30 08:02:29;;;;;;;26.90;20.30;;;;;;;18.91;95.46;99407.17;104012;276;38258;-71
2023/08/30 08:05:03;;;;;;;22.00;18.50;;;;;;;18.89;95.71;99409.30;104059;276;39417;-74
2023/08/30 08:07:43;;;;;;;22.60;18.90;;;;;;;18.88;96.05;99413.49;104054;276;39181;-74
2023/08/30 08:13:25;;;;;;;22.20;16.70;;;;;;;18.88;96.29;99410.08;103995;276;38289;-73
2023/08/30 08:16:01;;;;;;;21.10;16.70;;;;;;;18.85;96.31;99401.55;104032;276;38746;-73
2023/08/30 08:18:35;;;;;;;17.20;15.30;;;;;;;18.82;96.24;99399.16;103933;278;38609;-74
2023/08/30 08:21:10;;;;;;;17.20;15.10;;;;;;;18.78;95.80;99401.31;103912;276;40276;-73
2023/08/30 08:23:44;;;;;;;14.80;13.30;;;;;;;18.71;95.64;99403.33;104015;276;38228;-74
2023/08/30 08:26:19;;;;;;;15.10;13.30;;;;;;;18.67;95.89;99403.99;104007;276;39126;-74
2023/08/30 08:28:53;;;;;;;15.70;13.20;;;;;;;18.65;96.25;99400.40;104081;276;39378;-74
2023/08/30 08:31:28;;;;;;;14.40;12.90;;;;;;;18.63;96.00;99397.65;103989;276;38361;-74
2023/08/30 08:34:11;;;;;;;14.60;13.00;;;;;;;18.58;96.24;99393.98;103884;276;38248;-74
2023/08/30 08:36:46;;;;;;;15.90;13.30;;;;;;;18.56;96.79;99393.09;104101;276;38535;-74
2023/08/30 08:39:20;;;;;;;15.30;13.30;;;;;;;18.53;96.67;99392.45;104096;276;38782;-73
2023/08/30 08:41:54;;;;;;;22.60;18.70;;;;;;;18.49;97.01;99394.95;104024;276;39872;-74
2023/08/30 08:44:32;;;;;;;23.60;19.60;;;;;;;18.45;97.11;99387.36;103430;276;894558;-76
2023/08/30 08:47:06;;;;;;;23.50;19.20;;;;;;;18.42;97.57;99382.17;104054;276;38253;-73
2023/08/30 08:49:40;;;;;;;21.70;18.30;;;;;;;18.39;97.85;99382.57;104071;276;38251;-73
2023/08/30 08:52:14;;;;;;;20.40;18.20;;;;;;;18.38;97.99;99386.39;104029;276;38240;-73
2023/08/30 08:54:48;;;;;;;22.40;19.10;;;;;;;18.36;98.12;99386.50;104121;276;40028;-73
2023/08/30 08:57:23;;;;;;;23.70;19.70;;;;;;;18.38;98.42;99387.98;103843;276;39398;-74
2023/08/30 08:59:59;;;;;;;20.80;18.20;;;;;;;18.38;98.12;99390.82;104085;276;38745;-74
2023/08/30 09:02:33;;;;;;;21.70;18.30;;;;;;;18.37;98.37;99389.42;104096;276;39281;-73
2023/08/30 09:05:08;;;;;;;21.10;18.80;;;;;;;18.39;98.44;99386.27;104084;276;38710;-75
2023/08/30 09:07:42;;;;;;;19.10;17.00;;;;;;;18.41;98.47;99391.77;103997;276;174934;-73
2023/08/30 09:10:17;;;;;;;20.00;17.80;;;;;;;18.43;98.47;99393.67;104115;276;38540;-75
2023/08/30 09:12:51;;;;;;;23.70;18.00;;;;;;;18.44;98.33;99392.75;104107;276;38447;-76
2023/08/30 09:15:33;;;;;;;18.10;16.20;;;;;;;18.45;98.34;99390.33;104058;276;39707;-75
2023/08/30 09:18:15;;;;;;;18.90;16.50;;;;;;;18.47;98.42;99385.76;104155;276;39910;-74
2023/08/30 09:20:53;;;;;;;17.50;15.70;;;;;;;18.50;98.56;99384.97;104035;276;38851;-73
2023/08/30 09:23:26;;;;;;;19.50;15.70;;;;;;;18.52;98.59;99382.83;103446;276;892337;-73
2023/08/30 09:26:00;;;;;;;15.80;14.20;;;;;;;18.56;99.05;99384.42;103972;276;39627;-74
2023/08/30 09:28:42;;;;;;;16.00;14.40;;;;;;;18.59;98.65;99380.13;104032;276;38368;-75
2023/08/30 09:31:23;;;;;;;15.70;14.00;;;;;;;18.63;99.01;99381.54;104068;276;39239;-73
2023/08/30 09:34:08;;;;;;;16.40;14.70;;;;;;;18.68;99.14;99377.58;104109;276;38707;-74
2023/08/30 09:36:48;;;;;;;15.40;13.80;;;;;;;18.70;99.25;99381.48;104003;276;39176;-73
2023/08/30 09:39:22;;;;;;;15.90;14.20;;;;;;;18.76;99.64;99381.11;104085;276;38240;-73
2023/08/30 09:42:02;;;;;;;14.60;13.20;;;;;;;18.76;98.84;99383.77;103959;277;38235;-73
2023/08/30 09:44:36;;;;;;;15.90;13.60;;;;;;;18.77;99.22;99382.63;104064;276;38242;-73
2023/08/30 09:47:09;;;;;;;15.00;13.40;;;;;;;18.81;99.22;99382.63;103917;276;38335;-73
2023/08/30 09:49:46;;;;;;;17.80;14.00;;;;;;;18.84;99.12;99387.87;104016;276;39414;-74
2023/08/30 09:52:25;;;;;;;14.50;12.80;;;;;;;18.83;98.88;99390.76;103931;276;174550;-74
2023/08/30 09:54:59;;;;;;;14.60;13.00;;;;;;;18.83;98.96;99392.21;103963;276;38720;-73
2023/08/30 09:57:50;;;;;;;14.10;12.60;;;;;;;18.82;98.72;99392.11;104014;276;38393;-73
2023/08/30 10:00:26;;;;;;;13.90;12.30;;;;;;;18.79;98.74;99394.96;104070;276;39427;-74
2023/08/30 10:03:02;;;;;;;13.00;11.60;;;;;;;18.77;98.72;99392.50;104039;276;38389;-73
2023/08/30 10:05:37;;;;;;;13.80;12.50;;;;;;;18.76;98.57;99394.04;103917;277;41297;-73
2023/08/30 10:08:14;;;;;;;13.70;12.40;;;;;;;18.74;98.53;99397.88;103890;264;38222;-75
2023/08/30 10:10:50;;;;;;;12.40;11.30;;;;;;;18.74;98.82;99397.23;103909;276;39018;-74
2023/08/30 10:13:24;;;;;;;12.50;11.20;;;;;;;18.74;98.89;99396.14;104083;276;39431;-74
2023/08/30 10:16:06;;;;;;;12.40;11.30;;;;;;;18.76;99.32;99396.66;103875;277;38301;-73
2023/08/30 10:18:40;;;;;;;11.60;10.30;;;;;;;18.81;99.62;99395.86;104068;276;38235;-74
2023/08/30 10:21:16;;;;;;;12.50;11.00;;;;;;;18.85;99.45;99398.69;104039;276;38594;-74
2023/08/30 10:23:55;;;;;;;11.90;10.60;;;;;;;18.85;99.10;99394.33;103772;276;38509;-74
2023/08/30 10:26:29;;;;;;;12.90;11.60;;;;;;;18.86;99.37;99392.66;103874;276;38278;-73
2023/08/30 10:29:04;;;;;;;12.10;10.90;;;;;;;18.89;99.53;99383.39;104057;276;38239;-73
2023/08/30 10:31:40;;;;;;;11.10;10.10;;;;;;;18.92;99.54;99377.81;104019;276;38895;-74
2023/08/30 10:34:21;;;;;;;10.90;9.90;;;;;;;18.92;99.28;99375.48;104072;276;39884;-75
2023/08/30 10:37:03;;;;;;;10.10;9.10;;;;;;;18.90;98.93;99379.70;104030;276;38453;-74
2023/08/30 10:39:42;;;;;;;10.70;9.60;;;;;;;18.94;99.36;99376.92;104030;276;38220;-73
2023/08/30 10:42:27;;;;;;;10.30;9.20;;;;;;;18.95;99.33;99372.39;104024;276;39551;-72
2023/08/30 10:45:05;;;;;;;9.80;8.70;;;;;;;18.96;99.58;99372.65;104058;276;38455;-73
2023/08/30 10:47:41;;;;;;;9.20;8.20;;;;;;;19.01;99.96;99362.13;103973;276;39401;-73
2023/08/30 10:50:16;;;;;;;8.50;7.70;;;;;;;19.09;100.00;99364.29;104025;276;38237;-73
2023/08/30 10:52:59;;;;;;;8.50;7.70;;;;;;;19.13;99.73;99366.56;104039;276;38270;-73
2023/08/30 10:55:33;;;;;;;8.00;7.30;;;;;;;19.22;100.00;99365.89;104108;276;38270;-74
2023/08/30 10:58:16;;;;;;;7.20;6.60;;;;;;;19.36;100.00;99364.26;104017;276;38436;-73
2023/08/30 11:00:55;;;;;;;7.20;6.50;;;;;;;19.55;100.00;99366.41;104020;276;38756;-73
2023/08/30 11:03:32;;;;;;;7.70;6.90;;;;;;;19.68;100.00;99364.57;104093;276;38437;-74
2023/08/30 11:06:21;;;;;;;7.20;6.50;;;;;;;19.77;100.00;99369.09;104062;276;38625;-74
2023/08/30 11:08:58;;;;;;;6.50;5.90;;;;;;;19.83;99.88;99371.37;103916;276;40099;-75
2023/08/30 11:11:42;;;;;;;6.40;5.80;;;;;;;19.87;99.32;99372.43;104049;276;38505;-76
2023/08/30 11:14:21;;;;;;;7.10;6.50;;;;;;;19.88;98.94;99378.55;103950;276;174852;-72
2023/08/30 11:17:05;;;;;;;5.50;4.90;;;;;;;19.88;98.71;99379.98;104036;277;39472;-72
2023/08/30 11:19:39;;;;;;;5.40;4.90;;;;;;;19.90;98.47;99384.34;104057;276;38301;-74
2023/08/30 11:22:20;;;;;;;5.30;4.80;;;;;;;19.88;98.05;99382.58;104068;276;38268;-72
2023/08/30 11:25:04;;;;;;;5.10;4.60;;;;;;;19.87;97.84;99385.85;103893;277;39390;-73
2023/08/30 11:27:38;;;;;;;5.10;4.70;;;;;;;19.87;97.86;99385.12;104059;276;39472;-73
2023/08/30 11:30:14;;;;;;;5.20;4.80;;;;;;;19.92;97.86;99389.45;104043;276;38433;-73
2023/08/30 11:32:51;;;;;;;4.30;3.90;;;;;;;19.96;97.68;99388.69;104052;276;39467;-72
2023/08/30 11:35:30;;;;;;;4.40;4.00;;;;;;;20.00;97.32;99389.77;103878;276;39442;-74
2023/08/30 11:38:25;;;;;;;4.60;4.10;;;;;;;20.01;97.61;99391.06;104099;276;38400;-74
2023/08/30 11:41:16;;;;;;;4.50;4.10;;;;;;;20.06;97.38;99382.99;104055;276;39210;-75
2023/08/30 11:43:53;;;;;;;6.10;5.10;;;;;;;20.11;97.35;99380.97;103890;276;38658;-74
2023/08/30 11:46:29;;;;;;;6.40;4.90;;;;;;;20.16;97.16;99381.44;104060;276;38322;-73
2023/08/30 11:49:03;;;;;;;5.00;4.50;;;;;;;20.19;96.83;99381.08;104053;276;174547;-73
2023/08/30 11:51:42;;;;;;;4.40;3.50;;;;;;;20.23;97.09;99381.02;104063;276;38399;-72
2023/08/30 11:54:21;;;;;;;3.50;3.20;;;;;;;20.26;96.69;99384.91;104063;276;38262;-75
2023/08/30 11:57:09;;;;;;;;;;;;;;;20.26;96.30;99383.23;104056;276;38669;-75
2023/08/30 11:59:43;;;;;;;3.30;3.00;;;;;;;20.25;96.43;99377.89;103916;276;38500;-76
2023/08/30 12:02:27;;;;;;;3.90;3.50;;;;;;;20.30;96.52;99379.75;104023;276;38646;-73